createdAt,value
2022-10-25T00:01:36.557Z,1.30
2022-10-25T00:04:03.759Z,1.40
2022-10-25T00:06:30.484Z,1.42
2022-10-25T00:08:57.301Z,1.30
2022-10-25T00:11:27.146Z,1.30
2022-10-25T00:13:55.694Z,1.50
2022-10-25T00:16:25.383Z,1.50
2022-10-25T00:18:52.563Z,1.75
2022-10-25T00:21:20.276Z,1.70
2022-10-25T00:23:47.709Z,1.83
2022-10-25T00:26:14.473Z,2.22
2022-10-25T00:28:41.535Z,2.50
2022-10-25T00:31:11.126Z,2.17
2022-10-25T00:33:38.935Z,2.63
2022-10-25T00:36:14.519Z,2.53
2022-10-25T00:38:41.708Z,2.63
2022-10-25T00:41:09.620Z,2.60
2022-10-25T00:43:39.476Z,2.50
2022-10-25T00:46:38.826Z,2.03
2022-10-25T00:49:13.535Z,2.50
2022-10-25T00:51:47.724Z,2.55
2022-10-25T00:56:44.601Z,2.00
2022-10-25T00:59:15.264Z,2.17
2022-10-25T01:01:42.311Z,2.80
2022-10-25T01:04:12.110Z,2.20
2022-10-25T01:06:44.357Z,2.03
2022-10-25T01:09:13.341Z,2.38
2022-10-25T01:11:40.103Z,2.30
2022-10-25T01:14:08.364Z,2.50
2022-10-25T01:16:43.947Z,2.35
2022-10-25T01:19:36.669Z,2.28
2022-10-25T01:22:12.383Z,2.53
2022-10-25T01:24:51.012Z,2.20
2022-10-25T01:27:51.015Z,2.30
2022-10-25T01:30:22.603Z,2.47
2022-10-25T01:33:31.139Z,2.28
2022-10-25T01:36:07.665Z,2.55
2022-10-25T01:38:49.336Z,2.38
2022-10-25T01:41:25.135Z,2.33
2022-10-25T01:44:12.509Z,2.20
2022-10-25T01:46:46.956Z,2.25
2022-10-25T01:49:28.607Z,2.17
2022-10-25T01:51:55.438Z,2.47
2022-10-25T01:54:25.420Z,2.67
2022-10-25T01:57:24.623Z,2.20
2022-10-25T02:00:11.235Z,2.20
2022-10-25T02:02:54.904Z,2.50
2022-10-25T02:05:32.475Z,2.40
2022-10-25T02:08:26.696Z,2.28
2022-10-25T02:11:06.930Z,2.70
2022-10-25T02:13:58.714Z,2.38
2022-10-25T02:16:28.692Z,2.70
2022-10-25T02:19:00.148Z,2.50
2022-10-25T02:21:31.977Z,3.20
2022-10-25T02:24:00.542Z,3.60
2022-10-25T02:26:27.858Z,3.30
2022-10-25T02:28:55.025Z,3.13
2022-10-25T02:31:22.624Z,3.25
2022-10-25T02:33:49.532Z,2.70
2022-10-25T02:36:21.476Z,2.20
2022-10-25T02:38:49.819Z,2.53
2022-10-25T02:41:17.258Z,2.35
2022-10-25T02:43:44.033Z,2.35
2022-10-25T02:46:14.450Z,1.63
2022-10-25T02:48:41.698Z,2.03
2022-10-25T02:51:09.101Z,2.00
2022-10-25T02:53:36.565Z,3.20
2022-10-25T02:56:06.062Z,1.95
2022-10-25T02:58:36.148Z,2.00
2022-10-25T03:01:03.694Z,1.80
2022-10-25T03:03:30.699Z,2.33
2022-10-25T03:05:57.860Z,2.30
2022-10-25T03:08:24.964Z,2.20
2022-10-25T03:10:52.123Z,2.35
2022-10-25T03:13:19.046Z,2.65
2022-10-25T03:15:46.188Z,2.08
2022-10-25T03:18:14.261Z,2.20
2022-10-25T03:20:41.886Z,2.17
2022-10-25T03:23:08.625Z,2.45
2022-10-25T03:25:35.398Z,2.13
2022-10-25T03:28:02.195Z,2.10
2022-10-25T03:30:30.469Z,2.33
2022-10-25T03:32:58.332Z,2.22
2022-10-25T03:35:25.300Z,2.03
2022-10-25T03:37:52.522Z,2.00
2022-10-25T03:40:19.843Z,1.73
2022-10-25T03:42:46.766Z,1.88
2022-10-25T03:45:13.655Z,1.70
2022-10-25T03:47:40.652Z,1.88
2022-10-25T03:50:08.073Z,2.05
2022-10-25T03:52:35.402Z,2.50
2022-10-25T03:55:02.274Z,2.58
2022-10-25T03:57:29.036Z,3.00
2022-10-25T03:59:55.839Z,2.10
2022-10-25T04:02:22.558Z,2.50
2022-10-25T04:04:49.263Z,2.63
2022-10-25T04:07:15.986Z,2.22
2022-10-25T04:09:43.069Z,1.70
2022-10-25T04:12:09.766Z,2.03
2022-10-25T04:14:36.594Z,1.80
2022-10-25T04:17:03.485Z,1.80
2022-10-25T04:19:30.159Z,2.13
2022-10-25T04:21:57.425Z,1.73
2022-10-25T04:24:24.163Z,1.70
2022-10-25T04:26:50.911Z,1.52
2022-10-25T04:29:17.661Z,1.60
2022-10-25T04:31:44.380Z,1.50
2022-10-25T04:34:11.104Z,1.83
2022-10-25T04:36:39.426Z,1.70
2022-10-25T04:39:06.475Z,2.20
2022-10-25T04:41:33.255Z,2.63
2022-10-25T04:44:00.036Z,2.30
2022-10-25T04:46:26.992Z,2.58
2022-10-25T04:48:53.758Z,3.20
2022-10-25T04:51:20.468Z,5.10
2022-10-25T04:53:47.212Z,4.90
2022-10-25T04:56:17.266Z,3.28
2022-10-25T04:58:43.972Z,3.50
2022-10-25T05:01:13.500Z,3.08
2022-10-25T05:03:41.217Z,2.55
2022-10-25T05:06:13.600Z,2.50
2022-10-25T05:08:41.436Z,2.17
2022-10-25T05:11:09.352Z,2.00
2022-10-25T05:13:37.476Z,2.28
2022-10-25T05:16:05.003Z,2.30
2022-10-25T05:18:33.328Z,2.20
2022-10-25T05:21:04.878Z,2.50
2022-10-25T05:23:33.600Z,2.63
2022-10-25T05:26:15.725Z,3.20
2022-10-25T05:28:43.983Z,2.63
2022-10-25T05:31:16.847Z,3.53
2022-10-25T05:33:45.763Z,3.33
2022-10-25T05:36:14.365Z,3.20
2022-10-25T05:38:42.029Z,4.00
2022-10-25T05:41:10.965Z,4.32
2022-10-25T05:43:37.812Z,4.50
2022-10-25T05:46:10.790Z,4.45
2022-10-25T05:48:37.853Z,3.90
2022-10-25T05:51:28.677Z,2.80
2022-10-25T05:53:58.407Z,2.17
2022-10-25T05:56:27.427Z,2.00
2022-10-25T05:58:54.291Z,1.77
2022-10-25T06:01:22.464Z,1.88
2022-10-25T06:03:53.178Z,2.15
2022-10-25T06:06:20.377Z,2.60
2022-10-25T06:08:47.813Z,3.08
2022-10-25T06:11:17.425Z,2.90
2022-10-25T06:13:44.365Z,2.78
2022-10-25T06:16:13.842Z,3.17
2022-10-25T06:18:40.555Z,2.90
2022-10-25T06:21:09.773Z,2.60
2022-10-25T06:23:37.409Z,2.60
2022-10-25T06:26:06.722Z,2.53
2022-10-25T06:28:34.073Z,2.53
2022-10-25T06:31:08.765Z,2.60
2022-10-25T06:33:35.689Z,2.70
2022-10-25T06:36:04.233Z,2.13
2022-10-25T06:38:31.638Z,2.38
2022-10-25T06:41:02.859Z,2.28
2022-10-25T06:43:30.440Z,2.63
2022-10-25T06:45:57.258Z,2.63
2022-10-25T06:48:24.480Z,2.85
2022-10-25T06:51:01.954Z,2.35
2022-10-25T06:53:28.790Z,2.65
2022-10-25T06:56:04.290Z,2.40
2022-10-25T06:58:33.609Z,2.55
2022-10-25T07:01:08.033Z,2.75
2022-10-25T07:03:37.788Z,2.75
2022-10-25T07:06:06.981Z,2.63
2022-10-25T07:08:37.938Z,2.92
2022-10-25T07:11:05.448Z,2.78
2022-10-25T07:13:33.082Z,2.78
2022-10-25T07:16:08.309Z,2.47
2022-10-25T07:18:36.488Z,2.25
2022-10-25T07:21:05.666Z,2.10
2022-10-25T07:23:32.608Z,2.03
2022-10-25T07:25:59.775Z,2.03
2022-10-25T07:28:27.500Z,2.30
2022-10-25T07:30:54.372Z,2.00
2022-10-25T07:33:21.225Z,2.20
2022-10-25T07:36:05.810Z,2.70
2022-10-25T07:38:33.523Z,2.33
2022-10-25T07:41:00.443Z,2.40
2022-10-25T07:43:27.285Z,2.10
2022-10-25T07:45:54.372Z,2.40
2022-10-25T07:48:21.536Z,2.10
2022-10-25T07:50:48.360Z,2.30
2022-10-25T07:53:15.363Z,2.05
2022-10-25T07:55:42.055Z,1.90
2022-10-25T07:58:10.647Z,1.83
2022-10-25T08:00:37.732Z,2.13
2022-10-25T08:03:04.841Z,2.20
2022-10-25T08:05:31.667Z,1.88
2022-10-25T08:07:58.366Z,2.13
2022-10-25T08:10:25.160Z,2.00
2022-10-25T08:12:51.886Z,1.80
2022-10-25T08:15:18.680Z,2.25
2022-10-25T08:17:45.729Z,2.08
2022-10-25T08:20:12.810Z,1.95
2022-10-25T08:22:39.636Z,1.80
2022-10-25T08:25:07.163Z,1.88
2022-10-25T08:27:33.908Z,2.15
2022-10-25T08:30:00.734Z,2.15
2022-10-25T08:32:28.727Z,3.67
2022-10-25T08:34:55.435Z,3.40
2022-10-25T08:37:22.182Z,3.20
2022-10-25T08:39:52.195Z,2.38
2022-10-25T08:42:36.868Z,3.25
2022-10-25T08:45:30.034Z,2.80
2022-10-25T08:47:57.279Z,2.63
2022-10-25T08:50:31.493Z,2.63
2022-10-25T08:56:05.133Z,3.08
2022-10-25T08:58:36.239Z,2.60
2022-10-25T09:01:16.914Z,2.13
2022-10-25T09:03:44.030Z,2.00
2022-10-25T09:06:33.568Z,1.83
2022-10-25T09:09:25.467Z,2.15
2022-10-25T09:12:06.318Z,1.95
2022-10-25T09:14:54.209Z,1.80
2022-10-25T09:17:30.103Z,2.08
2022-10-25T09:20:37.334Z,2.10
2022-10-25T09:23:12.911Z,2.30
2022-10-25T09:26:07.826Z,1.67
2022-10-25T09:28:51.624Z,1.80
2022-10-25T09:31:22.610Z,1.63
2022-10-25T09:33:53.684Z,1.73
2022-10-25T09:36:21.037Z,1.90
2022-10-25T09:38:52.490Z,1.60
2022-10-25T09:41:39.978Z,1.70
2022-10-25T09:44:18.161Z,1.75
2022-10-25T09:46:57.284Z,2.88
2022-10-25T09:50:04.321Z,2.50
2022-10-25T09:52:56.482Z,1.73
2022-10-25T09:55:54.246Z,1.10
2022-10-25T09:58:26.246Z,1.33
2022-10-25T10:00:55.468Z,1.30
2022-10-25T10:03:23.383Z,1.60
2022-10-25T10:05:57.311Z,1.60
2022-10-25T10:08:24.993Z,1.33
2022-10-25T10:10:52.985Z,1.20
2022-10-25T10:13:47.243Z,1.58
2022-10-25T10:16:23.837Z,1.40
2022-10-25T10:18:50.655Z,2.08
2022-10-25T10:21:20.602Z,1.60
2022-10-25T10:23:52.803Z,2.03
2022-10-25T10:26:29.483Z,1.20
2022-10-25T10:29:16.705Z,1.73
2022-10-25T10:31:47.896Z,1.20
2022-10-25T10:34:39.336Z,1.23
2022-10-25T10:37:23.332Z,1.10
2022-10-25T10:40:01.291Z,1.30
2022-10-25T10:42:35.939Z,1.27
2022-10-25T10:45:22.995Z,1.15
2022-10-25T10:47:50.101Z,1.48
2022-10-25T10:50:28.979Z,1.20
2022-10-25T10:53:06.974Z,1.70
2022-10-25T10:55:39.599Z,1.70
2022-10-25T10:58:22.520Z,1.70
2022-10-25T11:01:07.941Z,1.70
2022-10-25T11:04:01.425Z,1.63
2022-10-25T11:06:33.221Z,1.27
2022-10-25T11:09:18.109Z,1.73
2022-10-25T11:11:45.771Z,1.50
2022-10-25T11:14:17.309Z,2.30
2022-10-25T11:17:01.167Z,1.77
2022-10-25T11:19:58.745Z,1.53
2022-10-25T11:23:24.203Z,2.08
2022-10-25T11:26:09.736Z,1.70
2022-10-25T11:29:21.945Z,1.48
2022-10-25T11:32:06.403Z,1.35
2022-10-25T11:35:22.030Z,1.35
2022-10-25T11:38:11.667Z,1.30
2022-10-25T11:40:46.591Z,1.20
2022-10-25T11:43:31.541Z,1.10
2022-10-25T11:46:08.672Z,1.13
2022-10-25T11:48:53.826Z,1.35
2022-10-25T11:52:19.253Z,1.83
2022-10-25T11:54:58.659Z,1.65
2022-10-25T12:01:00.381Z,2.45
2022-10-25T12:04:29.869Z,1.60
2022-10-25T12:07:30.245Z,1.27
2022-10-25T12:10:21.752Z,1.05
2022-10-25T12:12:51.308Z,1.10
2022-10-25T12:15:24.800Z,2.25
2022-10-25T12:17:52.696Z,1.20
2022-10-25T12:20:25.204Z,1.00
2022-10-25T12:22:54.713Z,1.50
2022-10-25T12:25:28.364Z,1.13
2022-10-25T12:28:10.654Z,0.90
2022-10-25T12:30:39.172Z,1.33
2022-10-25T12:33:28.625Z,0.98
2022-10-25T12:35:59.937Z,1.33
2022-10-25T12:38:37.842Z,1.98
2022-10-25T12:41:13.731Z,2.22
2022-10-25T12:44:10.705Z,1.40
2022-10-25T12:47:01.161Z,1.60
2022-10-25T12:50:00.369Z,1.17
2022-10-25T12:52:35.784Z,1.15
2022-10-25T12:55:23.349Z,1.08
2022-10-25T12:58:08.705Z,1.40
2022-10-25T13:00:47.494Z,1.40
2022-10-25T13:03:52.930Z,1.30
2022-10-25T13:06:40.557Z,1.40
2022-10-25T13:09:13.062Z,2.53
2022-10-25T13:11:43.586Z,2.22
2022-10-25T13:14:27.477Z,2.30
2022-10-25T13:17:37.668Z,3.27
2022-10-25T13:20:28.234Z,3.25
2022-10-25T13:22:55.066Z,1.73
2022-10-25T13:25:50.983Z,1.10
2022-10-25T13:28:25.497Z,0.80
2022-10-25T13:31:30.883Z,1.20
2022-10-25T13:34:27.574Z,1.10
2022-10-25T13:36:59.137Z,0.95
2022-10-25T13:39:45.142Z,1.13
2022-10-25T13:42:38.278Z,1.30
2022-10-25T13:45:08.568Z,1.23
2022-10-25T13:47:47.444Z,1.27
2022-10-25T13:50:41.341Z,1.42
2022-10-25T13:53:23.718Z,0.93
2022-10-25T13:56:05.994Z,1.13
2022-10-25T13:58:45.323Z,0.93
2022-10-25T14:01:55.815Z,1.15
2022-10-25T14:04:34.244Z,1.20
2022-10-25T14:07:52.332Z,1.40
2022-10-25T14:10:23.422Z,1.40
2022-10-25T14:12:53.694Z,1.45
2022-10-25T14:15:40.493Z,1.70
2022-10-25T14:18:16.444Z,1.30
2022-10-25T14:20:46.903Z,1.40
2022-10-25T14:23:17.922Z,1.58
2022-10-25T14:25:54.070Z,1.65
2022-10-25T14:28:31.181Z,3.60
2022-10-25T14:31:05.355Z,1.77
2022-10-25T14:36:44.919Z,10.63
2022-10-25T14:39:24.235Z,1.70
2022-10-25T14:41:59.779Z,1.38
2022-10-25T14:44:29.498Z,1.40
2022-10-25T14:46:58.300Z,1.40
2022-10-25T14:49:25.590Z,1.80
2022-10-25T14:51:55.637Z,1.20
2022-10-25T14:54:35.452Z,1.10
2022-10-25T14:57:07.258Z,4.45
2022-10-25T14:59:45.153Z,1.63
2022-10-25T15:02:21.811Z,1.05
2022-10-25T15:04:54.589Z,1.33
2022-10-25T15:07:23.611Z,1.15
2022-10-25T15:09:56.795Z,4.65
2022-10-25T15:12:25.958Z,2.03
2022-10-25T15:14:54.150Z,1.50
2022-10-25T15:17:29.561Z,1.33
2022-10-25T15:20:17.276Z,1.10
2022-10-25T15:22:47.266Z,2.10
2022-10-25T15:25:43.706Z,1.33
2022-10-25T15:28:16.077Z,1.40
2022-10-25T15:31:13.448Z,1.23
2022-10-25T15:33:43.108Z,1.20
2022-10-25T15:36:20.667Z,5.97
2022-10-25T15:39:07.874Z,3.22
2022-10-25T15:41:35.701Z,1.75
2022-10-25T15:44:02.399Z,3.72
2022-10-25T15:46:33.542Z,3.83
2022-10-25T15:49:02.723Z,3.00
2022-10-25T15:51:31.210Z,1.90
2022-10-25T15:53:58.341Z,2.05
2022-10-25T15:56:25.116Z,1.80
2022-10-25T15:58:52.097Z,1.85
2022-10-25T16:01:19.690Z,2.88
2022-10-25T16:03:46.620Z,1.48
2022-10-25T16:06:14.526Z,1.58
2022-10-25T16:08:42.192Z,2.15
2022-10-25T16:11:14.680Z,1.80
2022-10-25T16:13:42.627Z,2.13
2022-10-25T16:16:38.809Z,3.17
2022-10-25T16:19:04.176Z,2.47
2022-10-25T16:21:31.480Z,2.42
2022-10-25T16:23:58.253Z,2.38
2022-10-25T16:26:34.883Z,1.85
2022-10-25T16:29:01.568Z,3.20
2022-10-25T16:31:28.465Z,2.45
2022-10-25T16:33:55.559Z,2.05
2022-10-25T16:36:22.310Z,3.47
2022-10-25T16:38:50.166Z,2.72
2022-10-25T16:41:32.108Z,2.67
2022-10-25T16:43:59.138Z,2.50
2022-10-25T16:46:26.910Z,2.80
2022-10-25T16:48:55.870Z,2.50
2022-10-25T16:51:25.997Z,2.55
2022-10-25T16:53:52.946Z,2.60
2022-10-25T16:56:19.621Z,2.53
2022-10-25T16:58:47.084Z,2.53
2022-10-25T17:01:21.856Z,2.53
2022-10-25T17:03:50.090Z,2.75
2022-10-25T17:06:39.708Z,2.78
2022-10-25T17:09:05.223Z,2.40
2022-10-25T17:11:31.981Z,2.70
2022-10-25T17:13:58.935Z,2.50
2022-10-25T17:16:25.738Z,2.75
2022-10-25T17:18:52.563Z,2.72
2022-10-25T17:21:19.564Z,3.15
2022-10-25T17:23:46.337Z,3.17
2022-10-25T17:26:13.202Z,2.80
2022-10-25T17:28:43.926Z,3.20
2022-10-25T17:31:13.067Z,3.00
2022-10-25T17:33:40.850Z,2.75
2022-10-25T17:36:21.071Z,3.05
2022-10-25T17:38:47.812Z,2.72
2022-10-25T17:41:14.766Z,2.20
2022-10-25T17:43:42.054Z,2.40
2022-10-25T17:46:15.403Z,2.60
2022-10-25T17:48:42.358Z,2.50
2022-10-25T17:51:11.937Z,2.30
2022-10-25T17:53:38.903Z,2.25
2022-10-25T17:56:13.247Z,2.92
2022-10-25T18:01:11.691Z,8.38
2022-10-25T18:03:38.779Z,8.68
2022-10-25T18:06:10.905Z,8.32
2022-10-25T18:08:37.859Z,8.98
2022-10-25T18:11:23.435Z,8.75
2022-10-25T18:13:55.614Z,8.95
2022-10-25T18:16:26.018Z,9.50
2022-10-25T18:18:57.094Z,8.50
2022-10-25T18:21:24.445Z,9.45
2022-10-25T18:24:01.353Z,9.55
2022-10-25T18:26:28.337Z,10.77
2022-10-25T18:28:55.381Z,10.60
2022-10-25T18:31:22.677Z,9.88
2022-10-25T18:33:49.686Z,9.57
2022-10-25T18:36:19.983Z,10.25
2022-10-25T18:38:47.241Z,10.25
2022-10-25T18:41:16.527Z,10.38
2022-10-25T18:43:43.684Z,9.13
2022-10-25T18:46:10.564Z,9.50
2022-10-25T18:48:37.447Z,9.40
2022-10-25T18:51:05.720Z,8.90
2022-10-25T18:53:35.540Z,8.18
2022-10-25T18:56:02.881Z,6.95
2022-10-25T18:58:32.897Z,6.93
2022-10-25T19:01:13.257Z,6.78
2022-10-25T19:03:41.110Z,5.70
2022-10-25T19:06:08.226Z,6.35
2022-10-25T19:08:35.777Z,6.40
2022-10-25T19:11:06.593Z,7.28
2022-10-25T19:13:33.517Z,8.45
2022-10-25T19:16:00.430Z,5.50
2022-10-25T19:18:28.610Z,6.20
2022-10-25T19:20:55.931Z,6.22
2022-10-25T19:23:22.661Z,4.93
2022-10-25T19:25:49.549Z,5.38
2022-10-25T19:28:16.335Z,4.80
2022-10-25T19:30:43.075Z,4.28
2022-10-25T19:33:10.045Z,3.00
2022-10-25T19:35:36.674Z,3.00
2022-10-25T19:38:03.426Z,3.20
2022-10-25T19:40:30.703Z,2.60
2022-10-25T19:42:57.546Z,2.42
2022-10-25T19:45:24.618Z,2.70
2022-10-25T19:47:56.167Z,2.50
2022-10-25T19:50:24.146Z,2.63
2022-10-25T19:52:51.442Z,2.80
2022-10-25T19:55:18.194Z,2.83
2022-10-25T19:57:45.194Z,3.25
2022-10-25T20:00:13.655Z,2.90
2022-10-25T20:02:40.871Z,2.88
2022-10-25T20:05:08.379Z,3.72
2022-10-25T20:07:36.520Z,3.38
2022-10-25T20:10:03.598Z,3.58
2022-10-25T20:12:30.678Z,3.55
2022-10-25T20:14:58.109Z,3.95
2022-10-25T20:17:25.037Z,4.40
2022-10-25T20:19:52.044Z,4.13
2022-10-25T20:22:19.530Z,3.78
2022-10-25T20:24:46.319Z,3.95
2022-10-25T20:27:13.106Z,3.67
2022-10-25T20:29:40.300Z,5.10
2022-10-25T20:32:07.011Z,4.00
2022-10-25T20:34:35.498Z,4.65
2022-10-25T20:37:04.006Z,8.85
2022-10-25T20:39:30.876Z,8.27
2022-10-25T20:41:58.018Z,9.10
2022-10-25T20:44:24.986Z,9.98
2022-10-25T20:46:51.754Z,9.30
2022-10-25T20:49:18.562Z,6.30
2022-10-25T20:51:45.958Z,5.22
2022-10-25T20:54:12.797Z,6.63
2022-10-25T20:56:39.946Z,9.13
2022-10-25T20:59:07.039Z,10.35
2022-10-25T21:01:33.841Z,12.70
2022-10-25T21:04:00.778Z,12.93
2022-10-25T21:06:27.515Z,12.93
2022-10-25T21:08:54.266Z,11.30
2022-10-25T21:11:21.319Z,9.98
2022-10-25T21:13:48.341Z,7.28
2022-10-25T21:16:16.170Z,5.07
2022-10-25T21:18:43.376Z,4.90
2022-10-25T21:21:18.055Z,3.70
2022-10-25T21:23:46.072Z,4.10
2022-10-25T21:26:12.839Z,4.55
2022-10-25T21:28:40.496Z,5.90
2022-10-25T21:31:14.876Z,7.13
2022-10-25T21:33:49.895Z,5.32
2022-10-25T21:36:18.745Z,5.10
2022-10-25T21:38:45.644Z,4.78
2022-10-25T21:41:15.324Z,4.22
2022-10-25T21:43:44.288Z,4.80
2022-10-25T21:46:12.029Z,5.10
2022-10-25T21:48:38.802Z,5.95
2022-10-25T21:51:05.687Z,5.78
2022-10-25T21:53:32.442Z,5.15
2022-10-25T21:56:07.456Z,5.13
2022-10-25T21:58:34.566Z,4.97
2022-10-25T22:01:01.448Z,5.07
2022-10-25T22:03:30.200Z,4.68
2022-10-25T22:05:57.681Z,4.45
2022-10-25T22:08:24.533Z,4.25
2022-10-25T22:11:02.977Z,4.38
2022-10-25T22:13:30.045Z,4.25
2022-10-25T22:16:06.027Z,4.80
2022-10-25T22:18:33.779Z,4.30
2022-10-25T22:21:03.144Z,4.07
2022-10-25T22:23:30.950Z,4.43
2022-10-25T22:26:07.165Z,4.57
2022-10-25T22:28:36.807Z,4.80
2022-10-25T22:31:12.492Z,4.03
2022-10-25T22:33:39.637Z,4.75
2022-10-25T22:36:09.203Z,4.70
2022-10-25T22:38:36.322Z,4.38
2022-10-25T22:41:06.340Z,4.40
2022-10-25T22:43:37.011Z,4.25
2022-10-25T22:46:05.976Z,4.68
2022-10-25T22:48:34.012Z,4.30
2022-10-25T22:51:00.760Z,3.38
2022-10-25T22:53:28.340Z,3.88
2022-10-25T22:56:00.536Z,4.15
2022-10-25T22:58:28.883Z,3.85
2022-10-25T23:01:00.685Z,3.95
2022-10-25T23:03:27.488Z,4.00
2022-10-25T23:05:59.020Z,4.00
2022-10-25T23:08:26.734Z,3.88
2022-10-25T23:11:01.965Z,3.33
2022-10-25T23:13:29.866Z,4.20
2022-10-25T23:15:57.037Z,4.00
2022-10-25T23:18:24.831Z,3.80
2022-10-25T23:20:52.632Z,3.58
2022-10-25T23:23:19.567Z,3.85
2022-10-25T23:25:46.832Z,3.70
2022-10-25T23:28:13.808Z,4.07
2022-10-25T23:30:41.325Z,3.72
2022-10-25T23:33:08.576Z,3.58
2022-10-25T23:35:35.257Z,3.17
2022-10-25T23:38:02.395Z,3.20
2022-10-25T23:40:31.886Z,2.50
2022-10-25T23:42:59.018Z,2.72
2022-10-25T23:45:26.973Z,3.17
2022-10-25T23:47:54.039Z,2.50
2022-10-25T23:50:20.839Z,2.38
2022-10-25T23:52:48.368Z,2.13
2022-10-25T23:55:16.506Z,2.30
2022-10-25T23:57:43.277Z,2.40
